createdAt,value
2022-09-26T00:00:01.375Z,7.55
2022-09-26T00:03:03.057Z,6.88
2022-09-26T00:06:07.447Z,9.90
2022-09-26T00:09:09.262Z,7.97
2022-09-26T00:12:11.073Z,7.28
2022-09-26T00:15:12.923Z,8.98
2022-09-26T00:18:14.591Z,8.88
2022-09-26T00:21:17.244Z,10.23
2022-09-26T00:24:19.002Z,6.88
2022-09-26T00:27:20.996Z,4.57
2022-09-26T00:30:22.978Z,8.07
2022-09-26T00:33:24.775Z,10.35
2022-09-26T00:36:37.354Z,14.77
2022-09-26T00:39:40.348Z,12.55
2022-09-26T00:42:42.050Z,9.40
2022-09-26T00:45:44.090Z,6.25
2022-09-26T00:48:51.380Z,12.38
2022-09-26T00:51:55.726Z,10.23
2022-09-26T00:55:02.646Z,12.43
2022-09-26T00:58:12.402Z,10.13
2022-09-26T01:01:15.910Z,11.23
2022-09-26T01:04:18.085Z,12.25
2022-09-26T01:07:22.058Z,10.73
2022-09-26T01:10:24.662Z,13.52
2022-09-26T01:13:27.774Z,15.02
2022-09-26T01:16:29.800Z,10.43
2022-09-26T01:20:03.131Z,12.77
2022-09-26T01:23:31.571Z,13.43
2022-09-26T01:27:15.112Z,13.27
2022-09-26T01:30:21.544Z,11.85
2022-09-26T01:37:08.091Z,10.95
2022-09-26T01:40:40.351Z,11.30
2022-09-26T01:44:03.590Z,9.13
2022-09-26T01:47:11.096Z,11.20
2022-09-26T01:50:38.281Z,10.05
2022-09-26T01:53:48.942Z,11.45
2022-09-26T01:56:54.530Z,10.95
2022-09-26T02:00:01.348Z,11.73
2022-09-26T02:03:10.331Z,13.65
2022-09-26T02:06:18.472Z,14.82
2022-09-26T02:09:28.463Z,10.40
2022-09-26T02:12:36.725Z,14.35
2022-09-26T02:15:40.422Z,12.18
2022-09-26T02:19:04.597Z,15.30
2022-09-26T02:22:07.027Z,12.18
2022-09-26T02:25:10.847Z,13.43
2022-09-26T02:28:14.237Z,13.57
2022-09-26T02:31:22.069Z,10.55
2022-09-26T02:34:25.966Z,10.98
2022-09-26T02:37:30.999Z,11.43
2022-09-26T02:40:42.408Z,11.98
2022-09-26T02:43:56.793Z,12.43
2022-09-26T02:47:16.644Z,10.85
2022-09-26T02:50:39.144Z,12.55
2022-09-26T02:53:57.570Z,10.50
2022-09-26T02:57:25.875Z,13.45
2022-09-26T03:00:42.374Z,10.65
2022-09-26T03:03:54.160Z,8.57
2022-09-26T03:07:00.348Z,11.77
2022-09-26T03:10:06.238Z,10.13
2022-09-26T03:13:13.186Z,9.82
2022-09-26T03:16:15.213Z,10.60
2022-09-26T03:19:41.574Z,10.85
2022-09-26T03:22:45.934Z,10.20
2022-09-26T03:25:57.500Z,12.90
2022-09-26T03:28:59.237Z,11.60
2022-09-26T03:32:04.777Z,14.95
2022-09-26T03:35:07.824Z,10.15
2022-09-26T03:38:14.117Z,8.95
2022-09-26T03:41:21.026Z,13.82
2022-09-26T03:44:46.858Z,11.02
2022-09-26T03:47:48.570Z,10.73
2022-09-26T03:50:50.278Z,11.50
2022-09-26T03:53:52.182Z,11.30
2022-09-26T03:56:56.286Z,9.85
2022-09-26T03:59:58.017Z,9.05
2022-09-26T04:03:06.400Z,10.52
2022-09-26T04:06:18.200Z,12.38
2022-09-26T04:09:20.154Z,10.35
2022-09-26T04:12:25.730Z,10.55
2022-09-26T04:15:28.583Z,11.68
2022-09-26T04:18:42.880Z,14.07
2022-09-26T04:21:45.536Z,10.73
2022-09-26T04:24:49.645Z,14.30
2022-09-26T04:27:51.594Z,12.05
2022-09-26T04:30:57.899Z,11.27
2022-09-26T04:34:00.515Z,10.40
2022-09-26T04:37:03.001Z,10.45
2022-09-26T04:40:05.000Z,12.32
2022-09-26T04:43:09.070Z,16.67
2022-09-26T04:46:17.157Z,11.07
2022-09-26T04:49:22.011Z,13.60
2022-09-26T04:52:24.152Z,14.38
2022-09-26T04:55:25.957Z,12.00
2022-09-26T04:58:28.318Z,13.27
2022-09-26T05:01:30.180Z,11.18
2022-09-26T05:04:43.595Z,13.73
2022-09-26T05:07:46.090Z,16.20
2022-09-26T05:10:53.303Z,17.38
2022-09-26T05:13:55.036Z,12.52
2022-09-26T05:17:02.013Z,11.93
2022-09-26T05:20:08.730Z,13.15
2022-09-26T05:23:45.313Z,13.30
2022-09-26T05:26:52.451Z,14.68
2022-09-26T05:29:56.444Z,13.15
2022-09-26T05:32:59.127Z,15.82
2022-09-26T05:36:01.087Z,14.90
2022-09-26T05:39:05.358Z,13.23
2022-09-26T05:42:08.098Z,12.93
2022-09-26T05:45:10.613Z,22.13
2022-09-26T05:48:13.650Z,19.55
2022-09-26T05:51:17.697Z,15.55
2022-09-26T05:54:19.839Z,15.80
2022-09-26T05:57:21.586Z,15.32
2022-09-26T06:00:29.293Z,16.48
2022-09-26T06:03:34.602Z,12.63
2022-09-26T06:06:59.300Z,13.15
2022-09-26T06:10:01.022Z,13.38
2022-09-26T06:13:09.521Z,12.88
2022-09-26T06:16:20.745Z,11.77
2022-09-26T06:19:23.318Z,11.35
2022-09-26T06:22:26.208Z,11.10
2022-09-26T06:25:29.412Z,11.15
2022-09-26T06:28:36.212Z,11.57
2022-09-26T06:31:38.488Z,13.43
2022-09-26T06:34:46.046Z,10.57
2022-09-26T06:38:20.143Z,11.57
2022-09-26T06:41:21.993Z,12.07
2022-09-26T06:44:23.942Z,11.13
2022-09-26T06:47:43.779Z,11.63
2022-09-26T06:51:06.507Z,4.05
2022-09-26T06:54:08.481Z,9.20
2022-09-26T06:57:15.072Z,0.98
2022-09-26T07:00:17.219Z,6.72
2022-09-26T07:03:40.505Z,8.02
2022-09-26T07:07:10.931Z,6.72
2022-09-26T07:10:13.962Z,11.70
2022-09-26T07:13:28.698Z,6.55
2022-09-26T07:16:31.888Z,10.57
2022-09-26T07:19:52.109Z,9.05
2022-09-26T07:23:13.136Z,7.60
2022-09-26T07:26:16.500Z,6.25
2022-09-26T07:29:18.243Z,4.45
2022-09-26T07:32:20.144Z,6.47
2022-09-26T07:35:34.155Z,4.30
2022-09-26T07:38:35.901Z,1.98
2022-09-26T07:41:38.862Z,5.80
2022-09-26T07:45:20.443Z,5.57
2022-09-26T07:48:21.920Z,6.70
2022-09-26T07:51:49.680Z,4.50
2022-09-26T07:54:55.051Z,4.60
2022-09-26T07:58:11.910Z,9.90
2022-09-26T08:01:20.300Z,4.05
2022-09-26T08:04:34.284Z,3.78
2022-09-26T08:07:37.954Z,3.85
2022-09-26T08:10:47.585Z,1.88
2022-09-26T08:13:58.275Z,3.28
2022-09-26T08:17:14.319Z,3.45
2022-09-26T08:20:16.568Z,3.50
2022-09-26T08:23:18.351Z,3.70
2022-09-26T08:26:29.358Z,8.00
2022-09-26T08:29:36.912Z,2.90
2022-09-26T08:32:39.048Z,1.27
2022-09-26T08:35:41.020Z,3.90
2022-09-26T08:39:02.859Z,7.88
2022-09-26T08:42:34.372Z,1.48
2022-09-26T08:46:12.103Z,3.40
2022-09-26T08:49:39.126Z,3.08
2022-09-26T08:52:46.919Z,3.05
2022-09-26T08:55:53.836Z,3.53
2022-09-26T08:59:00.430Z,3.22
2022-09-26T09:02:23.884Z,3.03
2022-09-26T09:05:42.956Z,1.55
2022-09-26T09:08:49.547Z,4.63
2022-09-26T09:12:32.549Z,3.22
2022-09-26T09:16:06.174Z,4.00
2022-09-26T09:19:55.617Z,3.45
2022-09-26T09:23:33.074Z,2.45
2022-09-26T09:30:17.692Z,1.35
2022-09-26T09:33:27.534Z,1.25
2022-09-26T09:36:53.726Z,1.05
2022-09-26T09:40:33.473Z,0.98
2022-09-26T09:43:37.944Z,2.60
2022-09-26T09:46:42.615Z,6.85
2022-09-26T09:49:47.860Z,3.08
2022-09-26T09:52:52.692Z,2.15
2022-09-26T09:56:13.240Z,1.70
2022-09-26T09:59:56.113Z,3.17
2022-09-26T10:03:34.907Z,3.05
2022-09-26T10:06:45.669Z,1.48
2022-09-26T10:09:51.882Z,0.47
2022-09-26T10:13:00.225Z,1.30
2022-09-26T10:16:27.999Z,5.03
2022-09-26T10:19:37.800Z,1.95
2022-09-26T10:22:45.591Z,2.22
2022-09-26T10:26:08.086Z,2.22
2022-09-26T10:29:29.077Z,3.00
2022-09-26T10:32:31.021Z,3.08
2022-09-26T10:36:00.235Z,2.30
2022-09-26T10:39:38.538Z,2.38
2022-09-26T10:42:43.190Z,3.00
2022-09-26T10:45:45.505Z,2.63
2022-09-26T10:49:15.654Z,2.05
2022-09-26T10:53:01.592Z,2.78
2022-09-26T10:56:10.238Z,2.30
2022-09-26T10:59:16.213Z,1.48
2022-09-26T11:05:43.435Z,1.55
2022-09-26T11:08:55.057Z,1.90
2022-09-26T11:12:28.104Z,2.03
2022-09-26T11:15:39.652Z,3.78
2022-09-26T11:18:41.960Z,2.85
2022-09-26T11:21:58.673Z,1.50
2022-09-26T11:25:14.466Z,2.40
2022-09-26T11:28:24.906Z,2.20
2022-09-26T11:31:48.482Z,2.50
2022-09-26T11:35:43.404Z,1.95
2022-09-26T11:39:13.827Z,1.60
2022-09-26T11:42:18.523Z,1.52
2022-09-26T11:46:04.815Z,4.45
2022-09-26T11:49:51.418Z,2.05
2022-09-26T11:53:43.176Z,1.50
2022-09-26T11:57:03.876Z,2.97
2022-09-26T12:00:24.743Z,2.17
2022-09-26T12:04:06.721Z,2.28
2022-09-26T12:07:21.113Z,2.28
2022-09-26T12:10:40.768Z,2.60
2022-09-26T12:13:54.305Z,1.75
2022-09-26T12:17:30.338Z,1.63
2022-09-26T12:20:41.907Z,1.42
2022-09-26T12:23:51.840Z,1.60
2022-09-26T12:27:05.878Z,2.00
2022-09-26T12:30:21.968Z,2.25
2022-09-26T12:33:37.259Z,3.38
2022-09-26T12:36:47.953Z,1.92
2022-09-26T12:40:07.033Z,2.60
2022-09-26T12:43:35.999Z,1.90
2022-09-26T12:46:42.624Z,3.08
2022-09-26T12:49:50.306Z,2.15
2022-09-26T12:52:54.759Z,2.20
2022-09-26T12:55:56.543Z,1.75
2022-09-26T12:59:24.158Z,1.70
2022-09-26T13:02:51.912Z,3.30
2022-09-26T13:06:12.150Z,1.75
2022-09-26T13:09:52.014Z,2.80
2022-09-26T13:13:12.188Z,1.45
2022-09-26T13:16:53.719Z,1.92
2022-09-26T13:20:05.057Z,4.72
2022-09-26T13:23:31.598Z,3.67
2022-09-26T13:26:45.233Z,2.03
2022-09-26T13:29:58.254Z,2.38
2022-09-26T13:33:11.243Z,2.03
2022-09-26T13:36:13.897Z,1.27
2022-09-26T13:39:26.937Z,1.80
2022-09-26T13:42:45.861Z,1.88
2022-09-26T13:45:56.200Z,3.58
2022-09-26T13:49:19.022Z,3.15
2022-09-26T13:52:52.329Z,3.35
2022-09-26T13:56:31.269Z,3.85
2022-09-26T13:59:49.036Z,3.17
2022-09-26T14:03:16.651Z,1.50
2022-09-26T14:06:27.552Z,2.38
2022-09-26T14:10:12.312Z,4.30
2022-09-26T14:13:31.828Z,1.85
2022-09-26T14:16:36.727Z,2.22
2022-09-26T14:19:46.794Z,1.60
2022-09-26T14:22:56.883Z,1.83
2022-09-26T14:26:06.019Z,6.25
2022-09-26T14:29:29.639Z,3.20
2022-09-26T14:32:41.496Z,2.20
2022-09-26T14:35:43.560Z,1.90
2022-09-26T14:38:50.407Z,1.40
2022-09-26T14:41:53.404Z,2.30
2022-09-26T14:45:07.757Z,2.72
2022-09-26T14:48:36.077Z,3.08
2022-09-26T14:51:41.223Z,2.40
2022-09-26T14:54:43.309Z,2.50
2022-09-26T14:57:46.750Z,3.63
2022-09-26T15:00:49.689Z,1.70
2022-09-26T15:03:51.427Z,1.42
2022-09-26T15:07:01.256Z,1.45
2022-09-26T15:10:10.451Z,1.35
2022-09-26T15:13:36.548Z,1.80
2022-09-26T15:16:42.637Z,1.60
2022-09-26T15:22:57.316Z,1.73
2022-09-26T15:26:02.835Z,2.17
2022-09-26T15:29:06.848Z,3.15
2022-09-26T15:32:19.657Z,4.63
2022-09-26T15:35:21.723Z,1.98
2022-09-26T15:38:24.598Z,1.70
2022-09-26T15:41:45.064Z,2.35
2022-09-26T15:44:53.671Z,3.75
2022-09-26T15:47:57.777Z,1.77
2022-09-26T15:51:20.379Z,2.10
2022-09-26T15:54:30.781Z,3.13
2022-09-26T15:57:33.473Z,2.58
2022-09-26T16:00:40.968Z,1.50
2022-09-26T16:03:55.218Z,2.70
2022-09-26T16:07:03.236Z,1.50
2022-09-26T16:10:06.723Z,1.55
2022-09-26T16:13:25.287Z,1.83
2022-09-26T16:16:32.063Z,2.35
2022-09-26T16:19:35.843Z,2.92
2022-09-26T16:22:39.171Z,2.40
2022-09-26T16:25:47.676Z,3.60
2022-09-26T16:28:52.974Z,2.25
2022-09-26T16:31:55.121Z,3.47
2022-09-26T16:35:17.587Z,3.60
2022-09-26T16:38:35.749Z,2.78
2022-09-26T16:45:07.354Z,1.65
2022-09-26T16:48:35.017Z,2.63
2022-09-26T16:51:40.928Z,2.13
2022-09-26T16:54:42.675Z,1.60
2022-09-26T16:57:56.384Z,3.67
2022-09-26T17:01:16.983Z,1.52
2022-09-26T17:04:32.578Z,4.53
2022-09-26T17:07:34.336Z,3.05
2022-09-26T17:10:37.535Z,3.38
2022-09-26T17:13:40.762Z,3.78
2022-09-26T17:16:50.388Z,2.95
2022-09-26T17:19:59.087Z,2.60
2022-09-26T17:23:16.805Z,3.95
2022-09-26T17:26:23.984Z,3.00
2022-09-26T17:29:29.992Z,2.92
2022-09-26T17:32:35.926Z,5.35
2022-09-26T17:35:40.202Z,3.80
2022-09-26T17:38:43.433Z,4.00
2022-09-26T17:41:45.328Z,2.80
2022-09-26T17:44:48.199Z,2.25
2022-09-26T17:47:50.125Z,2.60
2022-09-26T17:50:56.151Z,2.53
2022-09-26T17:53:57.998Z,3.55
2022-09-26T17:57:01.101Z,2.90
2022-09-26T18:00:15.574Z,3.80
2022-09-26T18:03:23.751Z,4.30
2022-09-26T18:06:28.816Z,6.18
2022-09-26T18:09:37.589Z,6.78
2022-09-26T18:12:39.346Z,5.03
2022-09-26T18:15:41.696Z,3.75
2022-09-26T18:18:44.327Z,5.00
2022-09-26T18:21:54.674Z,30.60
2022-09-26T18:25:04.689Z,3.90
2022-09-26T18:28:12.979Z,7.10
2022-09-26T18:31:14.900Z,6.22
2022-09-26T18:34:19.952Z,6.07
2022-09-26T18:37:21.700Z,3.28
2022-09-26T18:40:25.775Z,3.15
2022-09-26T18:43:39.014Z,3.33
2022-09-26T18:46:44.508Z,3.58
2022-09-26T18:49:47.043Z,5.45
2022-09-26T18:52:49.988Z,5.05
2022-09-26T18:56:10.110Z,5.05
2022-09-26T18:59:12.325Z,6.72
2022-09-26T19:02:26.783Z,7.88
2022-09-26T19:05:28.675Z,7.50
2022-09-26T19:08:35.813Z,6.75
2022-09-26T19:11:37.578Z,4.88
2022-09-26T19:14:39.515Z,5.25
2022-09-26T19:17:41.440Z,6.00
2022-09-26T19:20:43.747Z,7.28
2022-09-26T19:23:46.867Z,6.72
2022-09-26T19:27:06.074Z,6.95
2022-09-26T19:30:21.062Z,11.65
2022-09-26T19:33:22.858Z,6.72
2022-09-26T19:36:24.602Z,6.00
2022-09-26T19:39:26.702Z,5.20
2022-09-26T19:42:28.412Z,5.35
2022-09-26T19:45:32.284Z,6.10
2022-09-26T19:48:38.813Z,3.55
2022-09-26T19:51:41.006Z,3.38
2022-09-26T19:54:44.596Z,5.07
2022-09-26T19:57:46.437Z,3.05
2022-09-26T20:00:53.777Z,6.32
2022-09-26T20:03:55.534Z,4.85
2022-09-26T20:06:58.452Z,4.10
2022-09-26T20:10:01.837Z,4.18
2022-09-26T20:13:03.578Z,4.78
2022-09-26T20:16:05.599Z,5.72
2022-09-26T20:19:10.897Z,3.35
2022-09-26T20:22:20.261Z,5.68
2022-09-26T20:25:30.940Z,3.80
2022-09-26T20:28:32.686Z,2.95
2022-09-26T20:31:34.571Z,3.75
2022-09-26T20:34:36.451Z,2.90
2022-09-26T20:37:40.362Z,3.45
2022-09-26T20:40:42.415Z,3.65
2022-09-26T20:43:48.509Z,3.33
2022-09-26T20:46:53.919Z,5.88
2022-09-26T20:50:01.782Z,7.32
2022-09-26T20:53:03.797Z,5.03
2022-09-26T20:56:10.635Z,3.78
2022-09-26T20:59:15.039Z,3.15
2022-09-26T21:02:23.400Z,4.80
2022-09-26T21:05:29.041Z,3.47
2022-09-26T21:08:30.817Z,3.10
2022-09-26T21:11:32.591Z,3.70
2022-09-26T21:14:34.325Z,2.78
2022-09-26T21:17:36.059Z,4.93
2022-09-26T21:20:37.888Z,3.25
2022-09-26T21:23:52.742Z,2.65
2022-09-26T21:26:54.445Z,2.83
2022-09-26T21:29:56.165Z,2.58
2022-09-26T21:32:59.927Z,3.08
2022-09-26T21:36:02.065Z,3.53
2022-09-26T21:39:05.065Z,4.30
2022-09-26T21:42:07.623Z,3.92
2022-09-26T21:45:11.254Z,4.13
2022-09-26T21:48:14.397Z,6.65
2022-09-26T21:51:16.346Z,3.72
2022-09-26T21:54:26.156Z,3.65
2022-09-26T21:57:33.915Z,4.35
2022-09-26T22:00:35.756Z,5.28
2022-09-26T22:03:37.666Z,3.42
2022-09-26T22:06:39.407Z,2.80
2022-09-26T22:09:41.255Z,2.45
2022-09-26T22:12:43.287Z,2.53
2022-09-26T22:15:45.033Z,3.20
2022-09-26T22:18:46.740Z,3.10
2022-09-26T22:21:48.551Z,2.63
2022-09-26T22:24:50.383Z,3.20
2022-09-26T22:27:52.221Z,2.97
2022-09-26T22:30:54.802Z,3.67
2022-09-26T22:33:59.913Z,2.53
2022-09-26T22:37:01.678Z,4.03
2022-09-26T22:40:04.140Z,1.70
2022-09-26T22:43:06.520Z,2.92
2022-09-26T22:46:13.122Z,2.50
2022-09-26T22:49:14.976Z,2.97
2022-09-26T22:52:16.871Z,3.47
2022-09-26T22:55:18.912Z,4.15
2022-09-26T22:58:22.819Z,3.03
2022-09-26T23:01:27.414Z,2.40
2022-09-26T23:04:46.951Z,2.20
2022-09-26T23:07:48.824Z,3.00
2022-09-26T23:10:51.561Z,2.70
2022-09-26T23:13:53.715Z,2.40
2022-09-26T23:16:55.518Z,2.63
2022-09-26T23:19:57.288Z,2.03
2022-09-26T23:22:58.966Z,4.53
2022-09-26T23:26:00.906Z,2.15
2022-09-26T23:29:02.656Z,2.30
2022-09-26T23:32:04.462Z,6.28
2022-09-26T23:35:06.621Z,1.88
2022-09-26T23:38:08.542Z,3.25
2022-09-26T23:41:11.879Z,1.98
2022-09-26T23:44:13.652Z,2.40
2022-09-26T23:47:15.517Z,2.65
2022-09-26T23:50:17.355Z,3.70
2022-09-26T23:53:19.376Z,2.35
2022-09-26T23:56:21.468Z,3.30
2022-09-26T23:59:23.215Z,2.65
